Time;durP1;ratioP1;P1;durP2;ratioP2;P2;SDS_P1;SDS_P2;PMS_P1;PMS_P2;Temp;Humidity;BMP_temperature;BMP_pressure;BME280_temperature;BME280_humidity;BME280_pressure;Samples;Min_cycle;Max_cycle;Signal;HPM_P1;HPM_P2
2024/04/18 00:02:16;;;;;;;6.13;3.50;;;;;;;;;;5373159;26;20008;-59
2024/04/18 00:04:42;;;;;;;10.52;4.53;;;;;;;;;;5344233;26;20008;-57
2024/04/18 00:07:08;;;;;;;5.43;3.03;;;;;;;;;;5375080;26;20016;-58
2024/04/18 00:09:34;;;;;;;13.23;3.83;;;;;;;;;;5373577;26;20011;-57
2024/04/18 00:11:59;;;;;;;9.32;3.72;;;;;;;;;;5375481;26;20059;-57
2024/04/18 00:14:44;;;;;;;20.73;5.10;;;;;;;;;;5373327;26;20499;-59
2024/04/18 00:17:16;;;;;;;7.43;3.40;;;;;;;;;;5345791;26;20000;-59
2024/04/18 00:19:44;;;;;;;10.23;3.85;;;;;;;;;;5373841;26;20004;-57
2024/04/18 00:22:31;;;;;;;14.27;4.75;;;;;;;;;;5375920;26;20078;-58
2024/04/18 00:25:04;;;;;;;21.95;7.32;;;;;;;;;;5375634;26;20008;-59
2024/04/18 00:27:49;;;;;;;21.10;7.20;;;;;;;;;;5373609;26;20555;-56
2024/04/18 00:30:35;;;;;;;13.15;4.65;;;;;;;;;;5375531;26;20004;-57
2024/04/18 00:33:01;;;;;;;13.45;4.80;;;;;;;;;;5376064;26;20066;-57
2024/04/18 00:35:39;;;;;;;15.52;4.60;;;;;;;;;;5374110;26;20518;-53
2024/04/18 00:38:13;;;;;;;8.57;3.63;;;;;;;;;;5346156;26;20004;-57
2024/04/18 00:40:41;;;;;;;11.32;3.92;;;;;;;;;;5378766;26;20036;-57
2024/04/18 00:43:17;;;;;;;12.45;4.80;;;;;;;;;;5372131;26;20015;-55
2024/04/18 00:45:43;;;;;;;11.85;4.68;;;;;;;;;;5373056;26;20005;-55
2024/04/18 00:48:22;;;;;;;11.10;4.28;;;;;;;;;;5373440;26;20008;-59
2024/04/18 00:50:49;;;;;;;13.85;4.18;;;;;;;;;;5373436;26;20004;-57
2024/04/18 00:53:18;;;;;;;12.38;4.97;;;;;;;;;;5373378;26;20000;-57
2024/04/18 00:55:49;;;;;;;12.43;5.30;;;;;;;;;;5374264;26;20004;-58
2024/04/18 00:58:15;;;;;;;15.25;4.70;;;;;;;;;;5374589;26;20471;-57
2024/04/18 01:00:42;;;;;;;12.98;5.40;;;;;;;;;;5343809;26;20105;-59
2024/04/18 01:03:28;;;;;;;11.50;4.65;;;;;;;;;;5374833;26;20000;-59
2024/04/18 01:06:07;;;;;;;12.77;5.22;;;;;;;;;;5346656;26;20005;-58
2024/04/18 01:08:52;;;;;;;11.05;5.38;;;;;;;;;;5372901;26;20653;-60
2024/04/18 01:11:29;;;;;;;12.25;5.30;;;;;;;;;;5372545;26;20284;-56
2024/04/18 01:13:54;;;;;;;10.75;4.75;;;;;;;;;;5374381;26;20131;-58
2024/04/18 01:16:21;;;;;;;11.77;4.93;;;;;;;;;;5343546;26;20004;-60
2024/04/18 01:18:47;;;;;;;11.88;4.47;;;;;;;;;;5374444;26;20475;-58
2024/04/18 01:21:15;;;;;;;12.25;5.07;;;;;;;;;;5372562;26;20014;-58
2024/04/18 01:23:41;;;;;;;7.45;4.80;;;;;;;;;;5374479;26;20004;-56
2024/04/18 01:26:10;;;;;;;17.13;4.70;;;;;;;;;;5371822;26;20012;-60
2024/04/18 01:28:36;;;;;;;12.57;4.40;;;;;;;;;;5372746;26;20495;-58
2024/04/18 01:31:02;;;;;;;15.23;4.43;;;;;;;;;;5343336;26;20012;-58
2024/04/18 01:33:27;;;;;;;9.85;4.15;;;;;;;;;;5373970;26;20471;-58
2024/04/18 01:35:53;;;;;;;14.13;4.22;;;;;;;;;;5373539;26;20364;-58
2024/04/18 01:38:19;;;;;;;12.32;4.53;;;;;;;;;;5374048;26;20060;-59
2024/04/18 01:40:45;;;;;;;11.55;5.15;;;;;;;;;;5384277;26;20004;-59
2024/04/18 01:43:30;;;;;;;14.63;4.47;;;;;;;;;;5409441;26;20055;-58
2024/04/18 01:46:14;;;;;;;16.65;5.05;;;;;;;;;;5381068;26;20039;-54
2024/04/18 01:48:58;;;;;;;11.57;4.50;;;;;;;;;;5373499;26;20485;-56
2024/04/18 01:51:43;;;;;;;11.88;4.70;;;;;;;;;;5347573;26;20041;-56
2024/04/18 01:54:28;;;;;;;8.10;4.20;;;;;;;;;;5372495;26;20355;-56
2024/04/18 01:56:54;;;;;;;11.05;5.35;;;;;;;;;;5394078;26;20004;-57
2024/04/18 01:59:21;;;;;;;14.82;6.28;;;;;;;;;;5369389;26;20012;-55
2024/04/18 02:01:47;;;;;;;22.70;8.32;;;;;;;;;;5372720;26;20107;-57
2024/04/18 02:04:12;;;;;;;23.08;8.30;;;;;;;;;;5373747;26;20012;-56
2024/04/18 02:06:38;;;;;;;16.50;8.07;;;;;;;;;;5370604;26;20035;-53
2024/04/18 02:09:22;;;;;;;18.10;6.65;;;;;;;;;;5373871;26;20008;-57
2024/04/18 02:11:50;;;;;;;16.38;6.10;;;;;;;;;;5373533;26;20012;-59
2024/04/18 02:14:37;;;;;;;12.95;6.35;;;;;;;;;;5373580;26;20004;-56
2024/04/18 02:17:03;;;;;;;16.05;6.43;;;;;;;;;;5401209;26;20001;-55
2024/04/18 02:19:29;;;;;;;25.80;8.60;;;;;;;;;;5403669;26;20015;-59
2024/04/18 02:22:18;;;;;;;22.52;7.35;;;;;;;;;;5406683;26;20084;-56
2024/04/18 02:25:10;;;;;;;18.58;6.82;;;;;;;;;;5382213;26;20000;-56
2024/04/18 02:27:42;;;;;;;15.52;7.22;;;;;;;;;;5380140;26;20009;-56
2024/04/18 02:30:25;;;;;;;16.17;6.35;;;;;;;;;;5397949;26;20554;-58
2024/04/18 02:33:13;;;;;;;15.45;6.78;;;;;;;;;;5374463;26;20015;-56
2024/04/18 02:35:48;;;;;;;18.05;7.25;;;;;;;;;;5373591;26;20505;-59
2024/04/18 02:38:33;;;;;;;14.35;5.75;;;;;;;;;;5372997;26;20019;-56
2024/04/18 02:41:06;;;;;;;24.27;6.88;;;;;;;;;;5377986;26;20005;-56
2024/04/18 02:43:52;;;;;;;15.75;6.03;;;;;;;;;;5371455;26;20008;-57
2024/04/18 02:46:18;;;;;;;16.55;6.60;;;;;;;;;;5372938;26;20019;-59
2024/04/18 02:49:02;;;;;;;17.65;6.40;;;;;;;;;;5370970;26;20040;-56
2024/04/18 02:51:28;;;;;;;17.50;6.65;;;;;;;;;;5341975;26;20029;-59
2024/04/18 02:54:12;;;;;;;19.98;6.53;;;;;;;;;;5370618;26;20517;-59
2024/04/18 02:56:38;;;;;;;22.15;6.60;;;;;;;;;;5370460;26;20055;-58
2024/04/18 02:59:10;;;;;;;19.17;6.75;;;;;;;;;;5370671;26;20477;-57
2024/04/18 03:01:49;;;;;;;24.98;6.75;;;;;;;;;;5314138;26;20035;-55
2024/04/18 03:04:15;;;;;;;18.73;6.30;;;;;;;;;;5368103;26;20005;-58
2024/04/18 03:06:41;;;;;;;15.85;6.95;;;;;;;;;;5369534;26;20008;-58
2024/04/18 03:09:11;;;;;;;26.73;6.75;;;;;;;;;;5340934;26;20052;-58
2024/04/18 03:11:56;;;;;;;20.70;6.50;;;;;;;;;;5370460;26;20495;-57
2024/04/18 03:14:53;;;;;;;14.43;6.27;;;;;;;;;;5364451;26;20410;-57
2024/04/18 03:17:39;;;;;;;20.25;6.38;;;;;;;;;;5341851;26;20098;-57
2024/04/18 03:20:05;;;;;;;16.27;5.75;;;;;;;;;;5373919;26;20417;-56
2024/04/18 03:22:51;;;;;;;22.60;6.07;;;;;;;;;;5374112;26;20008;-57
2024/04/18 03:25:16;;;;;;;12.73;6.10;;;;;;;;;;5373926;26;20032;-56
2024/04/18 03:28:00;;;;;;;15.60;6.70;;;;;;;;;;5374471;26;20004;-56
2024/04/18 03:30:26;;;;;;;19.88;6.40;;;;;;;;;;5375532;26;20505;-57
2024/04/18 03:33:07;;;;;;;15.48;5.90;;;;;;;;;;5375268;26;20040;-57
2024/04/18 03:35:36;;;;;;;18.13;6.43;;;;;;;;;;5375510;26;20486;-57
2024/04/18 03:38:13;;;;;;;14.68;6.18;;;;;;;;;;5344953;26;20466;-57
2024/04/18 03:40:39;;;;;;;19.13;6.60;;;;;;;;;;5384878;26;20117;-56
2024/04/18 03:43:05;;;;;;;16.52;6.50;;;;;;;;;;5411375;26;20007;-59
2024/04/18 03:45:32;;;;;;;15.13;6.57;;;;;;;;;;5408998;26;20117;-53
2024/04/18 03:48:16;;;;;;;14.02;5.70;;;;;;;;;;5409224;26;20084;-55
2024/04/18 03:50:46;;;;;;;17.83;6.18;;;;;;;;;;5377945;26;20494;-59
2024/04/18 03:53:20;;;;;;;18.48;6.80;;;;;;;;;;5345895;26;20040;-57
2024/04/18 03:55:46;;;;;;;17.85;6.20;;;;;;;;;;5373462;26;20019;-56
2024/04/18 03:58:12;;;;;;;15.55;5.78;;;;;;;;;;5375320;26;20008;-55
2024/04/18 04:00:48;;;;;;;17.20;6.03;;;;;;;;;;5373732;26;20037;-57
2024/04/18 04:03:14;;;;;;;15.10;7.22;;;;;;;;;;5344103;26;20008;-58
2024/04/18 04:05:40;;;;;;;13.98;6.45;;;;;;;;;;5374682;26;20008;-56
2024/04/18 04:08:06;;;;;;;10.95;5.65;;;;;;;;;;5379763;26;20551;-57
2024/04/18 04:10:42;;;;;;;11.93;6.10;;;;;;;;;;5372660;26;20015;-61
2024/04/18 04:13:08;;;;;;;13.35;6.07;;;;;;;;;;5344028;26;20380;-58
2024/04/18 04:15:41;;;;;;;11.93;5.57;;;;;;;;;;5398918;26;20014;-56
2024/04/18 04:18:07;;;;;;;16.33;7.15;;;;;;;;;;5410664;26;20031;-54
2024/04/18 04:20:43;;;;;;;14.88;6.90;;;;;;;;;;5396070;26;20012;-58
2024/04/18 04:23:09;;;;;;;17.33;6.03;;;;;;;;;;5375070;26;20019;-56
2024/04/18 04:25:54;;;;;;;14.25;6.53;;;;;;;;;;5375105;26;20020;-58
2024/04/18 04:28:19;;;;;;;15.43;6.20;;;;;;;;;;5373452;26;20010;-53
2024/04/18 04:30:45;;;;;;;14.52;6.18;;;;;;;;;;5388131;26;20003;-58
2024/04/18 04:33:11;;;;;;;12.35;6.50;;;;;;;;;;5408317;26;20019;-55
2024/04/18 04:35:36;;;;;;;13.13;6.05;;;;;;;;;;5406259;26;20014;-56
2024/04/18 04:38:02;;;;;;;10.70;5.55;;;;;;;;;;5362897;26;20004;-55
2024/04/18 04:40:37;;;;;;;14.52;6.07;;;;;;;;;;5390545;26;20004;-52
2024/04/18 04:43:03;;;;;;;11.18;5.50;;;;;;;;;;5392297;26;20019;-55
2024/04/18 04:45:29;;;;;;;9.88;6.45;;;;;;;;;;5392419;26;20004;-52
2024/04/18 04:48:04;;;;;;;10.30;5.47;;;;;;;;;;5361554;26;20044;-53
2024/04/18 04:50:30;;;;;;;11.88;5.75;;;;;;;;;;5377169;26;20081;-55
2024/04/18 04:53:12;;;;;;;8.18;5.65;;;;;;;;;;5346746;26;20000;-54
2024/04/18 04:56:01;;;;;;;9.10;5.97;;;;;;;;;;5348151;26;20445;-56
2024/04/18 04:58:27;;;;;;;13.20;6.07;;;;;;;;;;5371954;26;20004;-56
2024/04/18 05:00:56;;;;;;;16.35;6.43;;;;;;;;;;5383837;26;20080;-53
2024/04/18 05:03:39;;;;;;;17.88;6.10;;;;;;;;;;5409747;26;19996;-52
2024/04/18 05:06:24;;;;;;;15.73;6.07;;;;;;;;;;5409854;26;20010;-57
2024/04/18 05:09:08;;;;;;;17.50;7.18;;;;;;;;;;5409278;26;20053;-53
2024/04/18 05:11:34;;;;;;;17.50;6.20;;;;;;;;;;5372883;26;20004;-52
2024/04/18 05:14:00;;;;;;;14.10;5.32;;;;;;;;;;5408417;26;20003;-49
2024/04/18 05:16:44;;;;;;;13.30;5.68;;;;;;;;;;5409518;26;20007;-52
2024/04/18 05:19:11;;;;;;;12.93;6.10;;;;;;;;;;5409599;26;20007;-55
2024/04/18 05:21:37;;;;;;;13.20;6.13;;;;;;;;;;5383998;26;20016;-58
2024/04/18 05:24:22;;;;;;;13.18;5.68;;;;;;;;;;5408585;26;20011;-53
2024/04/18 05:26:47;;;;;;;14.43;7.15;;;;;;;;;;5404026;26;20007;-57
2024/04/18 05:31:59;;;;;;;12.30;6.35;;;;;;;;;;5382068;26;20020;-57
2024/04/18 05:34:28;;;;;;;16.58;6.88;;;;;;;;;;5373628;26;20012;-56
2024/04/18 05:36:55;;;;;;;13.48;5.72;;;;;;;;;;5314036;26;20004;-54
2024/04/18 05:39:21;;;;;;;12.57;6.50;;;;;;;;;;5373786;26;20041;-54
2024/04/18 05:41:47;;;;;;;10.13;5.35;;;;;;;;;;5392219;26;20004;-53
2024/04/18 05:44:41;;;;;;;16.67;6.38;;;;;;;;;;5409525;26;19999;-55
2024/04/18 05:47:08;;;;;;;11.10;5.72;;;;;;;;;;5407531;26;20032;-55
2024/04/18 05:49:34;;;;;;;12.75;5.85;;;;;;;;;;5409806;26;20018;-54
2024/04/18 05:51:59;;;;;;;16.40;6.47;;;;;;;;;;5393771;26;20539;-54
2024/04/18 05:54:29;;;;;;;11.38;6.13;;;;;;;;;;5373385;26;20011;-53
2024/04/18 05:57:06;;;;;;;11.77;5.20;;;;;;;;;;5373684;26;20012;-54
2024/04/18 05:59:52;;;;;;;11.15;5.25;;;;;;;;;;5371212;26;20032;-53
2024/04/18 06:02:18;;;;;;;30.10;7.07;;;;;;;;;;5380051;26;20368;-57
2024/04/18 06:04:44;;;;;;;9.63;5.25;;;;;;;;;;5392318;26;20055;-55
2024/04/18 06:07:31;;;;;;;11.45;5.82;;;;;;;;;;5385741;26;20430;-54
2024/04/18 06:09:58;;;;;;;13.82;5.78;;;;;;;;;;5373092;26;20004;-53
2024/04/18 06:12:24;;;;;;;11.88;6.80;;;;;;;;;;5389108;26;20021;-53
2024/04/18 06:14:51;;;;;;;12.43;6.07;;;;;;;;;;5373329;26;20076;-50
2024/04/18 06:17:17;;;;;;;8.35;5.80;;;;;;;;;;5387271;26;20073;-53
2024/04/18 06:19:50;;;;;;;12.63;5.60;;;;;;;;;;5370085;26;20001;-53
2024/04/18 06:22:34;;;;;;;13.15;6.85;;;;;;;;;;5386895;26;20107;-52
2024/04/18 06:25:20;;;;;;;12.52;5.82;;;;;;;;;;5361225;26;20008;-53
2024/04/18 06:27:46;;;;;;;19.98;6.00;;;;;;;;;;5366792;26;20348;-54
2024/04/18 06:30:12;;;;;;;9.77;5.15;;;;;;;;;;5370970;26;20637;-56
2024/04/18 06:32:38;;;;;;;16.52;5.35;;;;;;;;;;5370409;26;20106;-54
2024/04/18 06:35:06;;;;;;;15.10;5.70;;;;;;;;;;5342204;26;20759;-53
2024/04/18 06:37:32;;;;;;;15.13;8.95;;;;;;;;;;5371226;26;20495;-55
2024/04/18 06:40:00;;;;;;;15.60;8.13;;;;;;;;;;5342124;26;20015;-54
2024/04/18 06:42:26;;;;;;;12.05;6.15;;;;;;;;;;5371192;26;20501;-56
2024/04/18 06:44:52;;;;;;;10.13;5.32;;;;;;;;;;5373210;26;20020;-56
2024/04/18 06:47:18;;;;;;;15.48;5.72;;;;;;;;;;5371061;26;20004;-54
2024/04/18 06:50:04;;;;;;;11.93;5.00;;;;;;;;;;5373240;26;20008;-57
2024/04/18 06:52:31;;;;;;;11.88;4.47;;;;;;;;;;5372897;26;20022;-53
2024/04/18 06:54:58;;;;;;;12.18;5.50;;;;;;;;;;5377122;26;20001;-54
2024/04/18 06:57:45;;;;;;;9.95;5.40;;;;;;;;;;5376915;26;20078;-53
2024/04/18 07:00:11;;;;;;;13.73;6.07;;;;;;;;;;5345573;26;20396;-53
2024/04/18 07:02:38;;;;;;;11.55;5.07;;;;;;;;;;5374944;26;20012;-53
2024/04/18 07:05:22;;;;;;;10.23;4.85;;;;;;;;;;5391400;26;20023;-55
2024/04/18 07:07:50;;;;;;;11.23;5.07;;;;;;;;;;5410022;26;20440;-57
2024/04/18 07:10:33;;;;;;;6.63;4.47;;;;;;;;;;5410350;26;20022;-58
2024/04/18 07:13:20;;;;;;;12.52;6.78;;;;;;;;;;5403403;26;19999;-54
2024/04/18 07:15:56;;;;;;;8.23;4.32;;;;;;;;;;5389665;26;20848;-51
2024/04/18 07:18:40;;;;;;;8.13;4.15;;;;;;;;;;5407237;26;20027;-54
2024/04/18 07:21:06;;;;;;;9.45;4.40;;;;;;;;;;5391538;26;20108;-54
2024/04/18 07:23:36;;;;;;;11.55;4.10;;;;;;;;;;5361596;26;20495;-53
2024/04/18 07:26:03;;;;;;;10.25;3.80;;;;;;;;;;5393809;26;20022;-53
2024/04/18 07:28:29;;;;;;;10.48;4.38;;;;;;;;;;5390996;26;20000;-54
2024/04/18 07:30:55;;;;;;;7.90;3.80;;;;;;;;;;5390036;26;20370;-55
2024/04/18 07:33:21;;;;;;;9.43;3.50;;;;;;;;;;5392029;26;20026;-54
2024/04/18 07:35:58;;;;;;;10.30;3.38;;;;;;;;;;5395954;26;20001;-53
2024/04/18 07:38:29;;;;;;;7.97;3.03;;;;;;;;;;5374084;26;20019;-55
2024/04/18 07:40:55;;;;;;;6.85;3.40;;;;;;;;;;5381218;26;20009;-53
2024/04/18 07:43:21;;;;;;;3.85;3.10;;;;;;;;;;5373677;26;20004;-53
2024/04/18 07:45:48;;;;;;;7.82;2.97;;;;;;;;;;5375662;26;20074;-56
2024/04/18 07:48:15;;;;;;;11.63;3.55;;;;;;;;;;5375566;26;20908;-55
2024/04/18 07:50:41;;;;;;;6.88;3.03;;;;;;;;;;5375486;26;20016;-55
2024/04/18 07:53:06;;;;;;;11.85;3.00;;;;;;;;;;5356592;26;20056;-56
2024/04/18 07:55:32;;;;;;;5.78;2.92;;;;;;;;;;5386483;26;20506;-56
2024/04/18 07:57:58;;;;;;;6.55;3.22;;;;;;;;;;5361314;26;20516;-53
2024/04/18 08:00:24;;;;;;;12.00;3.58;;;;;;;;;;5390407;26;20081;-56
2024/04/18 08:02:51;;;;;;;5.40;2.72;;;;;;;;;;5397725;26;20008;-53
2024/04/18 08:05:20;;;;;;;7.18;2.90;;;;;;;;;;5382122;26;20008;-54
2024/04/18 08:07:46;;;;;;;5.13;2.30;;;;;;;;;;5382871;26;20015;-56
2024/04/18 08:10:12;;;;;;;8.95;3.03;;;;;;;;;;5379527;26;20004;-53
2024/04/18 08:12:38;;;;;;;3.22;2.20;;;;;;;;;;5378010;26;20082;-49
2024/04/18 08:15:04;;;;;;;6.35;2.70;;;;;;;;;;5386652;26;20396;-53
2024/04/18 08:17:35;;;;;;;5.55;2.63;;;;;;;;;;5372822;26;20062;-52
2024/04/18 08:20:01;;;;;;;7.30;3.00;;;;;;;;;;5375222;26;20020;-54
2024/04/18 08:22:29;;;;;;;5.80;2.42;;;;;;;;;;5373282;26;20041;-54
2024/04/18 08:24:55;;;;;;;3.67;2.30;;;;;;;;;;5374249;26;20016;-50
2024/04/18 08:27:20;;;;;;;9.55;2.45;;;;;;;;;;5372965;26;20015;-54
2024/04/18 08:29:46;;;;;;;7.70;2.42;;;;;;;;;;5375158;26;20019;-55
2024/04/18 08:32:12;;;;;;;6.70;2.00;;;;;;;;;;5373745;26;20015;-51
2024/04/18 08:34:39;;;;;;;6.35;2.40;;;;;;;;;;5344754;26;20016;-52
2024/04/18 08:37:04;;;;;;;3.38;2.05;;;;;;;;;;5375385;26;20004;-57
2024/04/18 08:39:30;;;;;;;5.70;3.03;;;;;;;;;;5408815;26;20003;-55
2024/04/18 08:41:56;;;;;;;7.55;2.53;;;;;;;;;;5377484;26;20044;-50
2024/04/18 08:44:22;;;;;;;5.28;2.35;;;;;;;;;;5374758;26;20016;-50
2024/04/18 08:46:49;;;;;;;4.97;2.42;;;;;;;;;;5388422;26;20022;-50
2024/04/18 08:49:16;;;;;;;3.92;1.95;;;;;;;;;;5391862;26;20000;-53
2024/04/18 08:51:43;;;;;;;4.22;1.95;;;;;;;;;;5333864;26;20848;-54
2024/04/18 08:54:10;;;;;;;5.05;2.00;;;;;;;;;;5390434;26;20023;-54
2024/04/18 08:56:37;;;;;;;3.38;2.40;;;;;;;;;;5391455;26;20008;-53
2024/04/18 08:59:04;;;;;;;9.77;3.10;;;;;;;;;;5393983;26;20015;-53
2024/04/18 09:01:30;;;;;;;4.47;2.38;;;;;;;;;;5350214;26;20050;-58
2024/04/18 09:03:56;;;;;;;10.95;2.42;;;;;;;;;;5389896;26;20093;-56
2024/04/18 09:06:22;;;;;;;5.65;2.40;;;;;;;;;;5361153;26;20008;-53
2024/04/18 09:08:50;;;;;;;8.15;2.20;;;;;;;;;;5374730;26;20004;-54
2024/04/18 09:11:16;;;;;;;4.88;2.17;;;;;;;;;;5384263;26;20011;-55
2024/04/18 09:13:46;;;;;;;4.32;1.70;;;;;;;;;;5372525;26;20004;-55
2024/04/18 09:16:12;;;;;;;5.82;2.53;;;;;;;;;;5396193;26;20014;-51
2024/04/18 09:18:39;;;;;;;7.93;3.13;;;;;;;;;;5366068;26;20015;-57
2024/04/18 09:21:11;;;;;;;5.07;2.20;;;;;;;;;;5373921;26;20004;-55
2024/04/18 09:23:39;;;;;;;5.72;1.67;;;;;;;;;;5373932;26;20096;-56
2024/04/18 09:26:05;;;;;;;9.32;2.15;;;;;;;;;;5371715;26;20869;-55
2024/04/18 09:28:30;;;;;;;4.00;1.90;;;;;;;;;;5373535;26;20008;-54
2024/04/18 09:30:57;;;;;;;7.68;2.33;;;;;;;;;;5371966;26;20013;-50
2024/04/18 09:33:26;;;;;;;6.13;2.10;;;;;;;;;;5381311;26;20498;-55
2024/04/18 09:35:54;;;;;;;;;;;;;;;;;;5378417;26;20007;-56
2024/04/18 09:38:21;;;;;;;5.72;1.98;;;;;;;;;;5400856;26;20036;-50
2024/04/18 09:40:59;;;;;;;4.20;1.35;;;;;;;;;;5370090;26;20858;-52
2024/04/18 09:43:30;;;;;;;3.92;2.25;;;;;;;;;;5390319;26;20622;-57
2024/04/18 09:46:01;;;;;;;7.43;1.52;;;;;;;;;;5372977;26;20005;-53
2024/04/18 09:48:27;;;;;;;5.03;2.20;;;;;;;;;;5373779;26;20044;-52
2024/04/18 09:50:53;;;;;;;3.60;1.67;;;;;;;;;;5371968;26;20345;-51
2024/04/18 09:53:19;;;;;;;2.97;1.85;;;;;;;;;;5371801;26;20000;-51
2024/04/18 09:55:46;;;;;;;7.53;1.80;;;;;;;;;;5372109;26;20016;-51
2024/04/18 09:58:13;;;;;;;3.92;1.60;;;;;;;;;;5395413;26;20011;-52
2024/04/18 10:00:38;;;;;;;3.55;2.00;;;;;;;;;;5409338;26;20010;-54
2024/04/18 10:03:06;;;;;;;4.05;2.10;;;;;;;;;;5407373;26;20084;-55
2024/04/18 10:05:32;;;;;;;3.85;1.77;;;;;;;;;;5406741;26;20009;-54
2024/04/18 10:07:58;;;;;;;2.35;1.70;;;;;;;;;;5388405;26;20451;-50
2024/04/18 10:10:25;;;;;;;3.72;2.00;;;;;;;;;;5371701;26;20000;-55
2024/04/18 10:12:52;;;;;;;5.03;1.55;;;;;;;;;;5372968;26;20483;-55
2024/04/18 10:15:19;;;;;;;2.72;1.42;;;;;;;;;;5312880;26;20019;-54
2024/04/18 10:17:45;;;;;;;2.85;1.50;;;;;;;;;;5373633;26;20816;-53
2024/04/18 10:20:13;;;;;;;3.83;1.95;;;;;;;;;;5341950;26;20004;-54
2024/04/18 10:22:39;;;;;;;5.40;1.73;;;;;;;;;;5372848;26;20004;-54
2024/04/18 10:25:15;;;;;;;3.83;1.55;;;;;;;;;;5373029;26;20009;-55
2024/04/18 10:27:44;;;;;;;2.15;1.50;;;;;;;;;;5372177;26;20488;-50
2024/04/18 10:30:13;;;;;;;3.28;1.38;;;;;;;;;;5373681;26;20000;-53
2024/04/18 10:32:41;;;;;;;5.03;1.20;;;;;;;;;;5371971;26;20016;-53
2024/04/18 10:35:06;;;;;;;3.03;1.60;;;;;;;;;;5371325;26;20049;-54
2024/04/18 10:37:33;;;;;;;4.80;2.95;;;;;;;;;;5372663;26;20008;-53
2024/04/18 10:39:59;;;;;;;4.07;2.20;;;;;;;;;;5378814;26;20027;-54
2024/04/18 10:42:25;;;;;;;3.13;2.17;;;;;;;;;;5342501;26;20015;-55
2024/04/18 10:44:50;;;;;;;3.50;2.13;;;;;;;;;;5372940;26;20388;-55
2024/04/18 10:47:20;;;;;;;4.90;2.72;;;;;;;;;;5373391;26;20013;-53
2024/04/18 10:49:46;;;;;;;3.63;1.80;;;;;;;;;;5373260;26;20008;-56
2024/04/18 10:52:16;;;;;;;5.00;2.58;;;;;;;;;;5371636;26;20008;-52
2024/04/18 10:54:41;;;;;;;2.45;1.50;;;;;;;;;;5371196;26;20348;-53
2024/04/18 10:57:07;;;;;;;3.60;1.35;;;;;;;;;;5342018;26;20098;-54
2024/04/18 10:59:35;;;;;;;3.35;1.80;;;;;;;;;;5383081;26;20018;-52
2024/04/18 11:02:05;;;;;;;3.27;1.50;;;;;;;;;;5408193;26;20004;-55
2024/04/18 11:04:30;;;;;;;;;;;;;;;;;;5408715;26;20003;-51
2024/04/18 11:06:56;;;;;;;8.45;3.35;;;;;;;;;;5410370;26;19998;-54
2024/04/18 11:09:22;;;;;;;4.15;2.40;;;;;;;;;;5399020;26;19996;-51
2024/04/18 11:11:48;;;;;;;7.00;2.22;;;;;;;;;;5372597;26;20016;-54
2024/04/18 11:14:13;;;;;;;2.75;1.73;;;;;;;;;;5341143;26;20008;-57
2024/04/18 11:16:40;;;;;;;2.60;1.40;;;;;;;;;;5372311;26;19996;-55
2024/04/18 11:19:05;;;;;;;3.58;1.90;;;;;;;;;;5370495;26;20004;-51
2024/04/18 11:21:31;;;;;;;2.67;1.80;;;;;;;;;;5372561;26;20368;-52
2024/04/18 11:23:57;;;;;;;3.47;2.00;;;;;;;;;;5371893;26;20525;-51
2024/04/18 11:26:25;;;;;;;3.85;2.10;;;;;;;;;;5370263;26;20008;-54
2024/04/18 11:28:51;;;;;;;4.13;1.80;;;;;;;;;;5372512;26;20383;-51
2024/04/18 11:31:17;;;;;;;4.90;2.10;;;;;;;;;;5370452;26;20018;-52
2024/04/18 11:33:43;;;;;;;2.28;1.55;;;;;;;;;;5371796;26;20016;-56
2024/04/18 11:36:08;;;;;;;4.32;2.40;;;;;;;;;;5371889;26;20016;-55
2024/04/18 11:38:34;;;;;;;2.38;1.90;;;;;;;;;;5370199;26;20617;-54
2024/04/18 11:41:00;;;;;;;1.85;1.58;;;;;;;;;;5387196;26;20386;-54
2024/04/18 11:43:26;;;;;;;4.43;2.25;;;;;;;;;;5411568;26;20004;-56
2024/04/18 11:45:51;;;;;;;3.90;2.22;;;;;;;;;;5389254;26;20004;-52
2024/04/18 11:48:17;;;;;;;5.03;2.10;;;;;;;;;;5373812;26;20008;-50
2024/04/18 11:50:43;;;;;;;2.83;2.00;;;;;;;;;;5376011;26;19996;-50
2024/04/18 11:53:09;;;;;;;4.22;1.90;;;;;;;;;;5375356;26;20088;-52
2024/04/18 11:55:35;;;;;;;7.70;2.30;;;;;;;;;;5344653;26;20022;-53
2024/04/18 11:58:19;;;;;;;4.75;2.40;;;;;;;;;;5375061;26;20000;-49
2024/04/18 12:00:45;;;;;;;5.55;2.15;;;;;;;;;;5372837;26;20008;-56
2024/04/18 12:03:11;;;;;;;3.70;2.30;;;;;;;;;;5375429;26;20480;-53
2024/04/18 12:05:52;;;;;;;4.57;2.40;;;;;;;;;;5380871;26;20071;-54
2024/04/18 12:08:17;;;;;;;4.50;2.00;;;;;;;;;;5400028;26;20488;-52
2024/04/18 12:10:43;;;;;;;4.47;2.60;;;;;;;;;;5375190;26;20019;-50
2024/04/18 12:13:09;;;;;;;4.05;2.10;;;;;;;;;;5376222;26;20012;-50
2024/04/18 12:15:51;;;;;;;4.32;1.98;;;;;;;;;;5404863;26;20004;-52
2024/04/18 12:18:28;;;;;;;11.85;3.45;;;;;;;;;;5375056;26;20019;-53
2024/04/18 12:20:54;;;;;;;3.08;2.15;;;;;;;;;;5373099;26;20004;-50
2024/04/18 12:23:42;;;;;;;3.38;2.45;;;;;;;;;;5319020;26;20004;-52
2024/04/18 12:26:11;;;;;;;5.72;2.40;;;;;;;;;;5375309;26;20016;-50
2024/04/18 12:28:45;;;;;;;3.63;2.38;;;;;;;;;;5345932;26;20018;-53
2024/04/18 12:31:11;;;;;;;2.72;1.98;;;;;;;;;;5372677;26;20082;-50
2024/04/18 12:33:50;;;;;;;4.60;1.90;;;;;;;;;;5343644;26;20323;-50
2024/04/18 12:36:17;;;;;;;4.18;2.85;;;;;;;;;;5372934;26;20008;-51
2024/04/18 12:38:44;;;;;;;5.13;2.25;;;;;;;;;;5374927;26;20126;-52
2024/04/18 12:41:12;;;;;;;;;;;;;;;;;;5382128;26;20540;-56
2024/04/18 12:43:38;;;;;;;5.18;2.58;;;;;;;;;;5373014;26;19933;-53
2024/04/18 12:46:24;;;;;;;4.75;2.03;;;;;;;;;;5374978;26;20036;-53
2024/04/18 12:48:50;;;;;;;2.92;2.10;;;;;;;;;;5373165;26;20105;-57
2024/04/18 12:51:16;;;;;;;5.38;2.30;;;;;;;;;;5372168;26;20016;-57
2024/04/18 12:53:42;;;;;;;5.88;2.42;;;;;;;;;;5373081;26;20479;-54
2024/04/18 12:56:08;;;;;;;4.90;2.10;;;;;;;;;;5372617;26;20432;-54
2024/04/18 12:58:34;;;;;;;9.35;2.80;;;;;;;;;;5373354;26;20040;-54
2024/04/18 13:01:10;;;;;;;3.45;1.80;;;;;;;;;;5373250;26;20015;-55
2024/04/18 13:03:43;;;;;;;2.22;1.60;;;;;;;;;;5375005;26;20472;-53
2024/04/18 13:06:28;;;;;;;2.40;1.60;;;;;;;;;;5374848;26;20004;-55
2024/04/18 13:08:55;;;;;;;1.48;1.10;;;;;;;;;;5375486;26;20503;-56
2024/04/18 13:11:40;;;;;;;2.58;1.42;;;;;;;;;;5374606;26;20008;-53
2024/04/18 13:14:05;;;;;;;1.83;1.30;;;;;;;;;;5374901;26;20023;-57
2024/04/18 13:16:31;;;;;;;2.78;1.48;;;;;;;;;;5374166;26;20004;-56
2024/04/18 13:19:11;;;;;;;3.13;1.50;;;;;;;;;;5371743;26;20004;-55
2024/04/18 13:21:39;;;;;;;1.98;1.35;;;;;;;;;;5372239;26;20066;-55
2024/04/18 13:24:08;;;;;;;5.68;1.40;;;;;;;;;;5374482;26;20103;-54
2024/04/18 13:26:55;;;;;;;2.85;1.40;;;;;;;;;;5374071;26;20002;-55
2024/04/18 13:29:23;;;;;;;2.38;1.38;;;;;;;;;;5371600;26;20023;-56
2024/04/18 13:32:09;;;;;;;4.82;2.00;;;;;;;;;;5373578;26;20428;-56
2024/04/18 13:34:35;;;;;;;2.28;1.52;;;;;;;;;;5372079;26;20023;-51
2024/04/18 13:37:01;;;;;;;3.20;1.60;;;;;;;;;;5372217;26;20008;-54
2024/04/18 13:39:49;;;;;;;3.83;2.08;;;;;;;;;;5376827;26;20004;-53
2024/04/18 13:42:14;;;;;;;5.97;1.95;;;;;;;;;;5374845;26;20008;-57
2024/04/18 13:44:53;;;;;;;2.33;1.50;;;;;;;;;;5371964;26;20103;-56
2024/04/18 13:47:22;;;;;;;2.92;1.90;;;;;;;;;;5373771;26;20000;-56
2024/04/18 13:49:48;;;;;;;3.05;1.83;;;;;;;;;;5373024;26;20016;-56
2024/04/18 13:52:14;;;;;;;3.42;1.80;;;;;;;;;;5357292;26;20008;-55
2024/04/18 13:55:00;;;;;;;3.05;1.90;;;;;;;;;;5377214;26;20135;-54
2024/04/18 13:57:32;;;;;;;3.17;1.92;;;;;;;;;;5383883;26;20479;-53
2024/04/18 14:00:16;;;;;;;2.50;1.80;;;;;;;;;;5380000;26;20004;-52
2024/04/18 14:03:00;;;;;;;2.65;1.98;;;;;;;;;;5408796;26;20004;-55
2024/04/18 14:05:26;;;;;;;4.07;2.10;;;;;;;;;;5400070;26;20023;-56
2024/04/18 14:08:04;;;;;;;3.88;2.22;;;;;;;;;;5373672;26;20000;-53
2024/04/18 14:10:32;;;;;;;3.80;2.20;;;;;;;;;;5373462;26;20022;-53
2024/04/18 14:13:19;;;;;;;4.57;2.10;;;;;;;;;;5371243;26;20055;-55
2024/04/18 14:18:53;;;;;;;3.38;1.67;;;;;;;;;;5370030;26;20008;-56
2024/04/18 14:21:38;;;;;;;3.60;1.67;;;;;;;;;;5372910;26;20073;-57
2024/04/18 14:24:04;;;;;;;4.32;1.65;;;;;;;;;;5372869;26;20008;-53
2024/04/18 14:26:30;;;;;;;3.95;1.65;;;;;;;;;;5371239;26;20056;-55
2024/04/18 14:29:16;;;;;;;3.45;1.70;;;;;;;;;;5373840;26;20016;-53
2024/04/18 14:32:00;;;;;;;3.50;2.05;;;;;;;;;;5373463;26;20000;-53
2024/04/18 14:34:46;;;;;;;3.30;2.03;;;;;;;;;;5372452;26;20019;-56
2024/04/18 14:37:15;;;;;;;2.65;1.73;;;;;;;;;;5372778;26;20012;-53
2024/04/18 14:39:41;;;;;;;2.67;1.80;;;;;;;;;;5372493;26;20074;-54
2024/04/18 14:42:06;;;;;;;5.45;2.13;;;;;;;;;;5377785;26;20012;-54
2024/04/18 14:44:32;;;;;;;3.70;1.85;;;;;;;;;;5341780;26;20012;-55
2024/04/18 14:47:15;;;;;;;5.95;1.90;;;;;;;;;;5370861;26;20069;-56
2024/04/18 14:50:01;;;;;;;2.60;2.03;;;;;;;;;;5373789;26;20012;-55
2024/04/18 14:52:35;;;;;;;5.03;2.60;;;;;;;;;;5371139;26;20004;-54
2024/04/18 14:55:29;;;;;;;4.97;3.10;;;;;;;;;;5373390;26;20040;-57
2024/04/18 14:58:14;;;;;;;8.10;3.85;;;;;;;;;;5346473;26;20573;-52
2024/04/18 15:00:52;;;;;;;5.00;2.72;;;;;;;;;;5371324;26;20004;-54
2024/04/18 15:03:19;;;;;;;6.00;2.80;;;;;;;;;;5371303;26;20004;-55
2024/04/18 15:05:55;;;;;;;4.13;2.47;;;;;;;;;;5372764;26;20775;-54
2024/04/18 15:08:36;;;;;;;5.38;2.05;;;;;;;;;;5341975;26;20363;-51